sensor_id;sensor_type;location;lat;lon;timestamp;P1;durP1;ratioP1;P2;durP2;ratioP2
52764;SDS011;38650;44.536;18.664;2022-10-22T00:00:54;45.90;;;34.70;;
52764;SDS011;38650;44.536;18.664;2022-10-22T00:03:20;38.55;;;31.48;;
52764;SDS011;38650;44.536;18.664;2022-10-22T00:05:46;38.67;;;31.30;;
52764;SDS011;38650;44.536;18.664;2022-10-22T00:08:12;45.13;;;34.80;;
52764;SDS011;38650;44.536;18.664;2022-10-22T00:10:38;37.75;;;30.20;;
52764;SDS011;38650;44.536;18.664;2022-10-22T00:13:04;32.83;;;26.65;;
52764;SDS011;38650;44.536;18.664;2022-10-22T00:15:30;33.85;;;26.42;;
52764;SDS011;38650;44.536;18.664;2022-10-22T00:17:56;36.58;;;29.35;;
52764;SDS011;38650;44.536;18.664;2022-10-22T00:20:22;43.17;;;32.88;;
52764;SDS011;38650;44.536;18.664;2022-10-22T00:22:48;33.60;;;25.70;;
52764;SDS011;38650;44.536;18.664;2022-10-22T00:25:14;30.95;;;23.88;;
52764;SDS011;38650;44.536;18.664;2022-10-22T00:27:40;24.17;;;21.00;;
52764;SDS011;38650;44.536;18.664;2022-10-22T00:30:06;22.42;;;18.17;;
52764;SDS011;38650;44.536;18.664;2022-10-22T00:32:32;20.23;;;17.08;;
52764;SDS011;38650;44.536;18.664;2022-10-22T00:34:58;22.17;;;17.42;;
52764;SDS011;38650;44.536;18.664;2022-10-22T00:37:23;18.20;;;15.38;;
52764;SDS011;38650;44.536;18.664;2022-10-22T00:39:49;22.38;;;17.65;;
52764;SDS011;38650;44.536;18.664;2022-10-22T00:42:16;22.42;;;18.33;;
52764;SDS011;38650;44.536;18.664;2022-10-22T00:47:54;17.45;;;14.75;;
52764;SDS011;38650;44.536;18.664;2022-10-22T00:50:32;16.00;;;13.32;;
52764;SDS011;38650;44.536;18.664;2022-10-22T00:53:05;16.98;;;14.23;;
52764;SDS011;38650;44.536;18.664;2022-10-22T00:55:37;14.00;;;11.70;;
52764;SDS011;38650;44.536;18.664;2022-10-22T00:58:04;17.92;;;13.85;;
52764;SDS011;38650;44.536;18.664;2022-10-22T01:00:30;14.80;;;11.68;;
52764;SDS011;38650;44.536;18.664;2022-10-22T01:02:56;12.00;;;10.70;;
52764;SDS011;38650;44.536;18.664;2022-10-22T01:05:22;11.15;;;9.75;;
52764;SDS011;38650;44.536;18.664;2022-10-22T01:07:51;10.48;;;9.15;;
52764;SDS011;38650;44.536;18.664;2022-10-22T01:13:08;16.35;;;12.10;;
52764;SDS011;38650;44.536;18.664;2022-10-22T01:15:59;13.32;;;10.40;;
52764;SDS011;38650;44.536;18.664;2022-10-22T01:26:23;10.15;;;8.27;;
52764;SDS011;38650;44.536;18.664;2022-10-22T01:31:37;8.05;;;7.03;;
52764;SDS011;38650;44.536;18.664;2022-10-22T01:34:08;10.95;;;7.70;;
52764;SDS011;38650;44.536;18.664;2022-10-22T01:36:38;8.93;;;6.90;;
52764;SDS011;38650;44.536;18.664;2022-10-22T01:39:05;8.38;;;6.75;;
52764;SDS011;38650;44.536;18.664;2022-10-22T01:41:33;9.82;;;7.60;;
52764;SDS011;38650;44.536;18.664;2022-10-22T01:43:59;9.88;;;8.23;;
52764;SDS011;38650;44.536;18.664;2022-10-22T01:46:25;10.00;;;8.77;;
52764;SDS011;38650;44.536;18.664;2022-10-22T01:57:28;10.23;;;8.40;;
52764;SDS011;38650;44.536;18.664;2022-10-22T02:00:05;8.27;;;6.82;;
52764;SDS011;38650;44.536;18.664;2022-10-22T02:05:06;10.35;;;7.90;;
52764;SDS011;38650;44.536;18.664;2022-10-22T02:07:46;8.65;;;6.90;;
52764;SDS011;38650;44.536;18.664;2022-10-22T02:10:19;8.65;;;6.72;;
52764;SDS011;38650;44.536;18.664;2022-10-22T02:12:47;7.93;;;6.93;;
52764;SDS011;38650;44.536;18.664;2022-10-22T02:15:16;17.45;;;12.20;;
52764;SDS011;38650;44.536;18.664;2022-10-22T02:17:44;10.52;;;8.88;;
52764;SDS011;38650;44.536;18.664;2022-10-22T02:20:15;16.55;;;12.32;;
52764;SDS011;38650;44.536;18.664;2022-10-22T02:23:08;15.98;;;12.63;;
52764;SDS011;38650;44.536;18.664;2022-10-22T02:25:35;17.15;;;13.77;;
52764;SDS011;38650;44.536;18.664;2022-10-22T02:28:04;13.80;;;11.35;;
52764;SDS011;38650;44.536;18.664;2022-10-22T02:30:47;17.90;;;13.15;;
52764;SDS011;38650;44.536;18.664;2022-10-22T02:33:21;13.25;;;11.65;;
52764;SDS011;38650;44.536;18.664;2022-10-22T02:35:51;11.57;;;10.30;;
52764;SDS011;38650;44.536;18.664;2022-10-22T02:38:18;13.25;;;11.15;;
52764;SDS011;38650;44.536;18.664;2022-10-22T02:40:44;13.20;;;10.93;;
52764;SDS011;38650;44.536;18.664;2022-10-22T02:43:10;13.93;;;11.75;;
52764;SDS011;38650;44.536;18.664;2022-10-22T02:45:36;13.20;;;10.20;;
52764;SDS011;38650;44.536;18.664;2022-10-22T02:48:02;8.70;;;7.68;;
52764;SDS011;38650;44.536;18.664;2022-10-22T02:50:28;11.52;;;9.55;;
52764;SDS011;38650;44.536;18.664;2022-10-22T02:52:54;10.15;;;8.75;;
52764;SDS011;38650;44.536;18.664;2022-10-22T02:55:19;9.25;;;8.25;;
52764;SDS011;38650;44.536;18.664;2022-10-22T02:57:45;9.55;;;8.40;;
52764;SDS011;38650;44.536;18.664;2022-10-22T03:00:11;11.18;;;8.93;;
52764;SDS011;38650;44.536;18.664;2022-10-22T03:02:37;12.70;;;10.38;;
52764;SDS011;38650;44.536;18.664;2022-10-22T03:05:03;11.38;;;8.63;;
52764;SDS011;38650;44.536;18.664;2022-10-22T03:07:29;10.27;;;8.77;;
52764;SDS011;38650;44.536;18.664;2022-10-22T03:09:55;9.02;;;7.32;;
52764;SDS011;38650;44.536;18.664;2022-10-22T03:12:20;7.97;;;6.97;;
52764;SDS011;38650;44.536;18.664;2022-10-22T03:14:46;12.77;;;8.75;;
52764;SDS011;38650;44.536;18.664;2022-10-22T03:17:12;12.38;;;10.48;;
52764;SDS011;38650;44.536;18.664;2022-10-22T03:19:38;11.43;;;9.60;;
52764;SDS011;38650;44.536;18.664;2022-10-22T03:22:05;8.77;;;7.63;;
52764;SDS011;38650;44.536;18.664;2022-10-22T03:24:40;8.10;;;7.03;;
52764;SDS011;38650;44.536;18.664;2022-10-22T03:27:08;7.28;;;5.82;;
52764;SDS011;38650;44.536;18.664;2022-10-22T03:29:37;6.07;;;5.40;;
52764;SDS011;38650;44.536;18.664;2022-10-22T03:32:03;4.75;;;4.35;;
52764;SDS011;38650;44.536;18.664;2022-10-22T03:34:29;4.90;;;4.35;;
52764;SDS011;38650;44.536;18.664;2022-10-22T03:36:55;5.00;;;4.22;;
52764;SDS011;38650;44.536;18.664;2022-10-22T03:39:22;4.40;;;3.85;;
52764;SDS011;38650;44.536;18.664;2022-10-22T03:41:48;6.28;;;5.22;;
52764;SDS011;38650;44.536;18.664;2022-10-22T03:44:15;5.72;;;5.05;;
52764;SDS011;38650;44.536;18.664;2022-10-22T03:46:42;6.45;;;4.93;;
52764;SDS011;38650;44.536;18.664;2022-10-22T03:49:07;7.47;;;5.10;;
52764;SDS011;38650;44.536;18.664;2022-10-22T03:51:33;6.00;;;4.80;;
52764;SDS011;38650;44.536;18.664;2022-10-22T03:53:59;7.65;;;5.68;;
52764;SDS011;38650;44.536;18.664;2022-10-22T03:56:26;7.97;;;5.93;;
52764;SDS011;38650;44.536;18.664;2022-10-22T03:58:54;9.65;;;7.00;;
52764;SDS011;38650;44.536;18.664;2022-10-22T04:01:21;11.45;;;8.40;;
52764;SDS011;38650;44.536;18.664;2022-10-22T04:03:48;13.90;;;10.05;;
52764;SDS011;38650;44.536;18.664;2022-10-22T04:06:13;11.27;;;8.27;;
52764;SDS011;38650;44.536;18.664;2022-10-22T04:08:40;12.55;;;9.55;;
52764;SDS011;38650;44.536;18.664;2022-10-22T04:11:07;13.23;;;9.98;;
52764;SDS011;38650;44.536;18.664;2022-10-22T04:13:33;11.35;;;9.05;;
52764;SDS011;38650;44.536;18.664;2022-10-22T04:16:07;11.50;;;8.80;;
52764;SDS011;38650;44.536;18.664;2022-10-22T04:18:43;14.07;;;10.75;;
52764;SDS011;38650;44.536;18.664;2022-10-22T04:21:10;16.05;;;12.50;;
52764;SDS011;38650;44.536;18.664;2022-10-22T04:23:38;21.48;;;14.63;;
52764;SDS011;38650;44.536;18.664;2022-10-22T04:26:08;16.55;;;12.73;;
52764;SDS011;38650;44.536;18.664;2022-10-22T04:28:33;14.57;;;11.38;;
52764;SDS011;38650;44.536;18.664;2022-10-22T04:30:59;15.65;;;11.27;;
52764;SDS011;38650;44.536;18.664;2022-10-22T04:33:25;26.17;;;18.92;;
52764;SDS011;38650;44.536;18.664;2022-10-22T04:35:50;19.02;;;15.02;;
52764;SDS011;38650;44.536;18.664;2022-10-22T04:38:16;20.60;;;15.32;;
52764;SDS011;38650;44.536;18.664;2022-10-22T04:40:42;17.65;;;14.25;;
52764;SDS011;38650;44.536;18.664;2022-10-22T04:43:07;18.60;;;14.75;;
52764;SDS011;38650;44.536;18.664;2022-10-22T04:45:34;17.17;;;12.88;;
52764;SDS011;38650;44.536;18.664;2022-10-22T04:48:00;18.55;;;13.80;;
52764;SDS011;38650;44.536;18.664;2022-10-22T04:50:26;18.35;;;14.05;;
52764;SDS011;38650;44.536;18.664;2022-10-22T04:52:52;16.58;;;13.13;;
52764;SDS011;38650;44.536;18.664;2022-10-22T04:55:17;18.27;;;14.45;;
52764;SDS011;38650;44.536;18.664;2022-10-22T04:57:43;16.40;;;13.32;;
52764;SDS011;38650;44.536;18.664;2022-10-22T05:00:09;58.45;;;38.38;;
52764;SDS011;38650;44.536;18.664;2022-10-22T05:02:35;32.92;;;24.65;;
52764;SDS011;38650;44.536;18.664;2022-10-22T05:05:01;33.72;;;23.02;;
52764;SDS011;38650;44.536;18.664;2022-10-22T05:07:27;32.80;;;22.70;;
52764;SDS011;38650;44.536;18.664;2022-10-22T05:09:52;26.08;;;19.45;;
52764;SDS011;38650;44.536;18.664;2022-10-22T05:12:18;26.25;;;18.73;;
52764;SDS011;38650;44.536;18.664;2022-10-22T05:14:44;21.48;;;16.55;;
52764;SDS011;38650;44.536;18.664;2022-10-22T05:17:10;20.67;;;16.27;;
52764;SDS011;38650;44.536;18.664;2022-10-22T05:19:35;21.83;;;16.35;;
52764;SDS011;38650;44.536;18.664;2022-10-22T05:22:02;20.80;;;15.30;;
52764;SDS011;38650;44.536;18.664;2022-10-22T05:24:28;19.58;;;14.40;;
52764;SDS011;38650;44.536;18.664;2022-10-22T05:26:55;16.55;;;13.75;;
52764;SDS011;38650;44.536;18.664;2022-10-22T05:29:22;30.70;;;21.40;;
52764;SDS011;38650;44.536;18.664;2022-10-22T05:31:48;20.05;;;16.35;;
52764;SDS011;38650;44.536;18.664;2022-10-22T05:34:14;19.38;;;15.82;;
52764;SDS011;38650;44.536;18.664;2022-10-22T05:36:41;17.52;;;14.55;;
52764;SDS011;38650;44.536;18.664;2022-10-22T05:39:07;17.38;;;14.00;;
52764;SDS011;38650;44.536;18.664;2022-10-22T05:41:33;12.98;;;11.57;;
52764;SDS011;38650;44.536;18.664;2022-10-22T05:44:03;12.07;;;10.48;;
52764;SDS011;38650;44.536;18.664;2022-10-22T05:46:29;11.63;;;9.73;;
52764;SDS011;38650;44.536;18.664;2022-10-22T05:48:58;10.35;;;9.20;;
52764;SDS011;38650;44.536;18.664;2022-10-22T05:51:26;9.80;;;8.63;;
52764;SDS011;38650;44.536;18.664;2022-10-22T05:53:54;8.65;;;7.75;;
52764;SDS011;38650;44.536;18.664;2022-10-22T05:56:22;8.38;;;7.22;;
52764;SDS011;38650;44.536;18.664;2022-10-22T05:58:49;7.18;;;6.47;;
52764;SDS011;38650;44.536;18.664;2022-10-22T06:01:19;8.05;;;6.78;;
52764;SDS011;38650;44.536;18.664;2022-10-22T06:03:53;7.75;;;6.75;;
52764;SDS011;38650;44.536;18.664;2022-10-22T06:06:23;5.82;;;5.28;;
52764;SDS011;38650;44.536;18.664;2022-10-22T06:11:49;7.63;;;6.03;;
52764;SDS011;38650;44.536;18.664;2022-10-22T06:14:16;8.80;;;5.57;;
52764;SDS011;38650;44.536;18.664;2022-10-22T06:16:42;6.03;;;5.20;;
52764;SDS011;38650;44.536;18.664;2022-10-22T06:19:09;7.57;;;6.20;;
52764;SDS011;38650;44.536;18.664;2022-10-22T06:21:36;6.50;;;5.78;;
52764;SDS011;38650;44.536;18.664;2022-10-22T06:24:02;7.88;;;6.10;;
52764;SDS011;38650;44.536;18.664;2022-10-22T06:26:28;8.18;;;5.82;;
52764;SDS011;38650;44.536;18.664;2022-10-22T06:28:54;7.75;;;5.60;;
52764;SDS011;38650;44.536;18.664;2022-10-22T06:31:21;7.07;;;5.90;;
52764;SDS011;38650;44.536;18.664;2022-10-22T06:33:47;9.18;;;6.68;;
52764;SDS011;38650;44.536;18.664;2022-10-22T06:36:14;6.15;;;5.55;;
52764;SDS011;38650;44.536;18.664;2022-10-22T06:38:42;8.07;;;6.63;;
52764;SDS011;38650;44.536;18.664;2022-10-22T06:41:11;8.98;;;7.05;;
52764;SDS011;38650;44.536;18.664;2022-10-22T06:43:39;10.18;;;7.45;;
52764;SDS011;38650;44.536;18.664;2022-10-22T06:46:12;9.65;;;8.27;;
52764;SDS011;38650;44.536;18.664;2022-10-22T06:48:39;12.05;;;9.10;;
52764;SDS011;38650;44.536;18.664;2022-10-22T06:51:06;9.52;;;8.38;;
52764;SDS011;38650;44.536;18.664;2022-10-22T06:53:34;12.27;;;9.75;;
52764;SDS011;38650;44.536;18.664;2022-10-22T06:56:04;20.70;;;14.45;;
52764;SDS011;38650;44.536;18.664;2022-10-22T06:58:34;23.25;;;19.02;;
52764;SDS011;38650;44.536;18.664;2022-10-22T07:01:10;19.55;;;17.27;;
52764;SDS011;38650;44.536;18.664;2022-10-22T07:03:37;15.80;;;14.10;;
52764;SDS011;38650;44.536;18.664;2022-10-22T07:06:04;15.20;;;13.52;;
52764;SDS011;38650;44.536;18.664;2022-10-22T07:08:32;22.30;;;19.92;;
52764;SDS011;38650;44.536;18.664;2022-10-22T07:11:14;22.48;;;19.80;;
52764;SDS011;38650;44.536;18.664;2022-10-22T07:13:40;21.77;;;18.98;;
52764;SDS011;38650;44.536;18.664;2022-10-22T07:16:07;18.60;;;16.65;;
52764;SDS011;38650;44.536;18.664;2022-10-22T07:18:33;18.67;;;16.63;;
52764;SDS011;38650;44.536;18.664;2022-10-22T07:21:00;22.20;;;19.45;;
52764;SDS011;38650;44.536;18.664;2022-10-22T07:23:27;17.55;;;15.85;;
52764;SDS011;38650;44.536;18.664;2022-10-22T07:25:53;14.50;;;13.10;;
52764;SDS011;38650;44.536;18.664;2022-10-22T07:28:19;15.30;;;13.52;;
52764;SDS011;38650;44.536;18.664;2022-10-22T07:30:44;12.80;;;11.57;;
52764;SDS011;38650;44.536;18.664;2022-10-22T07:33:10;13.88;;;11.80;;
52764;SDS011;38650;44.536;18.664;2022-10-22T07:35:37;13.88;;;11.30;;
52764;SDS011;38650;44.536;18.664;2022-10-22T07:38:04;13.13;;;11.82;;
52764;SDS011;38650;44.536;18.664;2022-10-22T07:40:30;13.52;;;11.75;;
52764;SDS011;38650;44.536;18.664;2022-10-22T07:42:56;11.75;;;10.55;;
52764;SDS011;38650;44.536;18.664;2022-10-22T07:45:21;12.10;;;10.77;;
52764;SDS011;38650;44.536;18.664;2022-10-22T07:47:47;14.20;;;12.25;;
52764;SDS011;38650;44.536;18.664;2022-10-22T07:50:13;13.88;;;12.40;;
52764;SDS011;38650;44.536;18.664;2022-10-22T07:52:40;17.95;;;14.52;;
52764;SDS011;38650;44.536;18.664;2022-10-22T07:55:06;15.43;;;13.23;;
52764;SDS011;38650;44.536;18.664;2022-10-22T07:57:32;15.93;;;13.45;;
52764;SDS011;38650;44.536;18.664;2022-10-22T07:59:57;14.63;;;12.32;;
52764;SDS011;38650;44.536;18.664;2022-10-22T08:02:23;12.85;;;11.45;;
52764;SDS011;38650;44.536;18.664;2022-10-22T08:04:49;12.05;;;9.85;;
52764;SDS011;38650;44.536;18.664;2022-10-22T08:07:16;9.20;;;8.30;;
52764;SDS011;38650;44.536;18.664;2022-10-22T08:09:42;9.27;;;8.18;;
52764;SDS011;38650;44.536;18.664;2022-10-22T08:12:08;8.30;;;7.50;;
52764;SDS011;38650;44.536;18.664;2022-10-22T08:14:34;7.55;;;6.82;;
52764;SDS011;38650;44.536;18.664;2022-10-22T08:17:00;8.88;;;7.97;;
52764;SDS011;38650;44.536;18.664;2022-10-22T08:19:26;7.03;;;6.32;;
52764;SDS011;38650;44.536;18.664;2022-10-22T08:21:53;7.13;;;6.43;;
52764;SDS011;38650;44.536;18.664;2022-10-22T08:24:19;6.57;;;5.75;;
52764;SDS011;38650;44.536;18.664;2022-10-22T08:26:45;5.60;;;5.10;;
52764;SDS011;38650;44.536;18.664;2022-10-22T08:29:10;5.93;;;5.20;;
52764;SDS011;38650;44.536;18.664;2022-10-22T08:31:37;6.93;;;5.55;;
52764;SDS011;38650;44.536;18.664;2022-10-22T08:34:02;5.90;;;5.38;;
52764;SDS011;38650;44.536;18.664;2022-10-22T08:36:29;10.88;;;8.07;;
52764;SDS011;38650;44.536;18.664;2022-10-22T08:38:55;11.27;;;9.40;;
52764;SDS011;38650;44.536;18.664;2022-10-22T08:41:21;9.23;;;8.32;;
52764;SDS011;38650;44.536;18.664;2022-10-22T08:43:54;8.57;;;7.13;;
52764;SDS011;38650;44.536;18.664;2022-10-22T08:49:23;10.38;;;7.18;;
52764;SDS011;38650;44.536;18.664;2022-10-22T08:51:52;7.53;;;6.80;;
52764;SDS011;38650;44.536;18.664;2022-10-22T08:59:46;5.95;;;5.35;;
52764;SDS011;38650;44.536;18.664;2022-10-22T09:07:47;5.00;;;4.57;;
52764;SDS011;38650;44.536;18.664;2022-10-22T09:10:15;5.05;;;4.65;;
52764;SDS011;38650;44.536;18.664;2022-10-22T09:12:43;5.85;;;5.25;;
52764;SDS011;38650;44.536;18.664;2022-10-22T09:15:14;7.57;;;4.93;;
52764;SDS011;38650;44.536;18.664;2022-10-22T09:23:34;16.33;;;11.13;;
52764;SDS011;38650;44.536;18.664;2022-10-22T09:26:11;16.90;;;14.05;;
52764;SDS011;38650;44.536;18.664;2022-10-22T09:28:39;15.90;;;13.25;;
52764;SDS011;38650;44.536;18.664;2022-10-22T09:31:11;13.00;;;11.60;;
52764;SDS011;38650;44.536;18.664;2022-10-22T09:33:39;12.50;;;11.20;;
52764;SDS011;38650;44.536;18.664;2022-10-22T09:36:05;11.90;;;10.70;;
52764;SDS011;38650;44.536;18.664;2022-10-22T09:38:35;10.82;;;9.82;;
52764;SDS011;38650;44.536;18.664;2022-10-22T09:41:17;11.80;;;9.82;;
52764;SDS011;38650;44.536;18.664;2022-10-22T09:43:47;9.70;;;8.70;;
52764;SDS011;38650;44.536;18.664;2022-10-22T09:46:23;8.50;;;7.68;;
52764;SDS011;38650;44.536;18.664;2022-10-22T09:51:22;8.55;;;7.70;;
52764;SDS011;38650;44.536;18.664;2022-10-22T09:53:59;6.90;;;6.30;;
52764;SDS011;38650;44.536;18.664;2022-10-22T09:56:34;5.65;;;5.25;;
52764;SDS011;38650;44.536;18.664;2022-10-22T09:59:05;5.78;;;5.22;;
52764;SDS011;38650;44.536;18.664;2022-10-22T10:01:37;6.30;;;5.70;;
52764;SDS011;38650;44.536;18.664;2022-10-22T10:04:06;5.20;;;4.65;;
52764;SDS011;38650;44.536;18.664;2022-10-22T10:06:34;6.63;;;5.15;;
52764;SDS011;38650;44.536;18.664;2022-10-22T10:09:05;5.20;;;4.80;;
52764;SDS011;38650;44.536;18.664;2022-10-22T10:11:45;5.32;;;4.90;;
52764;SDS011;38650;44.536;18.664;2022-10-22T10:14:20;5.82;;;4.20;;
52764;SDS011;38650;44.536;18.664;2022-10-22T10:17:01;5.00;;;4.50;;
52764;SDS011;38650;44.536;18.664;2022-10-22T10:33:36;5.28;;;4.78;;
52764;SDS011;38650;44.536;18.664;2022-10-22T10:36:16;5.80;;;5.20;;
52764;SDS011;38650;44.536;18.664;2022-10-22T10:38:53;6.65;;;5.90;;
52764;SDS011;38650;44.536;18.664;2022-10-22T10:47:17;5.13;;;4.63;;
52764;SDS011;38650;44.536;18.664;2022-10-22T10:49:47;4.88;;;4.30;;
52764;SDS011;38650;44.536;18.664;2022-10-22T10:55:17;4.55;;;4.15;;
52764;SDS011;38650;44.536;18.664;2022-10-22T11:00:20;4.28;;;3.88;;
52764;SDS011;38650;44.536;18.664;2022-10-22T11:13:58;5.15;;;3.65;;
52764;SDS011;38650;44.536;18.664;2022-10-22T11:19:40;3.33;;;3.00;;
52764;SDS011;38650;44.536;18.664;2022-10-22T11:22:18;4.82;;;2.90;;
52764;SDS011;38650;44.536;18.664;2022-10-22T11:25:43;2.70;;;2.50;;
52764;SDS011;38650;44.536;18.664;2022-10-22T11:28:03;3.08;;;2.78;;
52764;SDS011;38650;44.536;18.664;2022-10-22T11:30:35;5.93;;;3.75;;
52764;SDS011;38650;44.536;18.664;2022-10-22T11:33:04;2.95;;;2.60;;
52764;SDS011;38650;44.536;18.664;2022-10-22T11:35:39;2.90;;;2.45;;
52764;SDS011;38650;44.536;18.664;2022-10-22T11:38:09;5.43;;;2.92;;
52764;SDS011;38650;44.536;18.664;2022-10-22T11:40:44;2.60;;;2.40;;
52764;SDS011;38650;44.536;18.664;2022-10-22T11:43:25;4.90;;;2.83;;
52764;SDS011;38650;44.536;18.664;2022-10-22T11:46:24;2.28;;;2.08;;
52764;SDS011;38650;44.536;18.664;2022-10-22T11:49:03;3.78;;;2.65;;
52764;SDS011;38650;44.536;18.664;2022-10-22T11:51:38;5.25;;;2.65;;
52764;SDS011;38650;44.536;18.664;2022-10-22T11:56:56;5.82;;;2.97;;
52764;SDS011;38650;44.536;18.664;2022-10-22T11:59:57;2.40;;;2.20;;
52764;SDS011;38650;44.536;18.664;2022-10-22T12:05:16;2.30;;;2.10;;
52764;SDS011;38650;44.536;18.664;2022-10-22T12:07:52;2.45;;;2.25;;
52764;SDS011;38650;44.536;18.664;2022-10-22T12:10:19;2.70;;;2.50;;
52764;SDS011;38650;44.536;18.664;2022-10-22T12:12:56;3.90;;;2.55;;
52764;SDS011;38650;44.536;18.664;2022-10-22T12:15:25;3.13;;;2.83;;
52764;SDS011;38650;44.536;18.664;2022-10-22T12:17:57;3.80;;;2.50;;
52764;SDS011;38650;44.536;18.664;2022-10-22T12:20:24;3.13;;;2.70;;
52764;SDS011;38650;44.536;18.664;2022-10-22T12:22:52;4.05;;;3.40;;
52764;SDS011;38650;44.536;18.664;2022-10-22T12:25:23;3.28;;;2.80;;
52764;SDS011;38650;44.536;18.664;2022-10-22T12:27:58;3.40;;;3.10;;
52764;SDS011;38650;44.536;18.664;2022-10-22T12:32:53;4.03;;;3.63;;
52764;SDS011;38650;44.536;18.664;2022-10-22T12:35:22;3.95;;;3.47;;
52764;SDS011;38650;44.536;18.664;2022-10-22T12:38:35;3.67;;;3.38;;
52764;SDS011;38650;44.536;18.664;2022-10-22T12:40:40;4.07;;;3.65;;
52764;SDS011;38650;44.536;18.664;2022-10-22T12:43:09;4.65;;;4.00;;
52764;SDS011;38650;44.536;18.664;2022-10-22T12:45:37;4.10;;;3.70;;
52764;SDS011;38650;44.536;18.664;2022-10-22T12:48:05;4.00;;;3.70;;
52764;SDS011;38650;44.536;18.664;2022-10-22T12:50:39;5.80;;;4.40;;
52764;SDS011;38650;44.536;18.664;2022-10-22T12:53:14;5.78;;;4.60;;
52764;SDS011;38650;44.536;18.664;2022-10-22T12:55:46;7.15;;;5.50;;
52764;SDS011;38650;44.536;18.664;2022-10-22T12:58:21;6.53;;;5.82;;
52764;SDS011;38650;44.536;18.664;2022-10-22T13:00:55;9.05;;;6.60;;
52764;SDS011;38650;44.536;18.664;2022-10-22T13:03:26;10.38;;;9.38;;
52764;SDS011;38650;44.536;18.664;2022-10-22T13:06:21;9.38;;;8.57;;
52764;SDS011;38650;44.536;18.664;2022-10-22T13:11:30;12.77;;;10.90;;
52764;SDS011;38650;44.536;18.664;2022-10-22T13:14:04;13.13;;;11.82;;
52764;SDS011;38650;44.536;18.664;2022-10-22T13:22:22;17.77;;;15.80;;
52764;SDS011;38650;44.536;18.664;2022-10-22T13:24:52;12.30;;;10.95;;
52764;SDS011;38650;44.536;18.664;2022-10-22T13:27:18;12.95;;;11.52;;
52764;SDS011;38650;44.536;18.664;2022-10-22T13:29:44;11.95;;;9.45;;
52764;SDS011;38650;44.536;18.664;2022-10-22T13:34:56;14.95;;;12.25;;
52764;SDS011;38650;44.536;18.664;2022-10-22T13:37:27;10.23;;;8.73;;
52764;SDS011;38650;44.536;18.664;2022-10-22T13:39:54;10.63;;;7.68;;
52764;SDS011;38650;44.536;18.664;2022-10-22T13:42:20;10.50;;;7.38;;
52764;SDS011;38650;44.536;18.664;2022-10-22T13:44:45;10.38;;;7.20;;
52764;SDS011;38650;44.536;18.664;2022-10-22T13:47:25;9.00;;;6.43;;
52764;SDS011;38650;44.536;18.664;2022-10-22T13:49:52;11.25;;;7.93;;
52764;SDS011;38650;44.536;18.664;2022-10-22T13:52:36;8.35;;;6.50;;
52764;SDS011;38650;44.536;18.664;2022-10-22T13:57:44;11.38;;;7.90;;
52764;SDS011;38650;44.536;18.664;2022-10-22T14:00:11;10.80;;;7.40;;
52764;SDS011;38650;44.536;18.664;2022-10-22T14:02:39;11.70;;;6.50;;
52764;SDS011;38650;44.536;18.664;2022-10-22T14:05:05;13.60;;;8.63;;
52764;SDS011;38650;44.536;18.664;2022-10-22T14:07:33;10.55;;;8.75;;
52764;SDS011;38650;44.536;18.664;2022-10-22T14:10:00;11.05;;;9.85;;
52764;SDS011;38650;44.536;18.664;2022-10-22T14:12:25;15.75;;;14.10;;
52764;SDS011;38650;44.536;18.664;2022-10-22T14:14:52;15.50;;;13.90;;
52764;SDS011;38650;44.536;18.664;2022-10-22T14:17:18;13.63;;;12.18;;
52764;SDS011;38650;44.536;18.664;2022-10-22T14:19:45;15.23;;;11.32;;
52764;SDS011;38650;44.536;18.664;2022-10-22T14:22:15;15.02;;;12.90;;
52764;SDS011;38650;44.536;18.664;2022-10-22T14:24:42;19.15;;;17.25;;
52764;SDS011;38650;44.536;18.664;2022-10-22T14:27:12;17.02;;;15.35;;
52764;SDS011;38650;44.536;18.664;2022-10-22T14:29:39;19.60;;;17.52;;
52764;SDS011;38650;44.536;18.664;2022-10-22T14:32:15;17.48;;;14.55;;
52764;SDS011;38650;44.536;18.664;2022-10-22T14:34:44;13.93;;;12.38;;
52764;SDS011;38650;44.536;18.664;2022-10-22T14:37:15;14.40;;;11.55;;
52764;SDS011;38650;44.536;18.664;2022-10-22T14:39:44;17.58;;;12.95;;
52764;SDS011;38650;44.536;18.664;2022-10-22T14:42:16;16.38;;;12.52;;
52764;SDS011;38650;44.536;18.664;2022-10-22T14:44:43;15.75;;;11.75;;
52764;SDS011;38650;44.536;18.664;2022-10-22T14:47:08;15.45;;;12.25;;
52764;SDS011;38650;44.536;18.664;2022-10-22T14:49:34;12.68;;;10.93;;
52764;SDS011;38650;44.536;18.664;2022-10-22T14:52:01;15.27;;;12.70;;
52764;SDS011;38650;44.536;18.664;2022-10-22T14:54:27;12.55;;;11.27;;
52764;SDS011;38650;44.536;18.664;2022-10-22T14:56:53;13.57;;;10.45;;
52764;SDS011;38650;44.536;18.664;2022-10-22T14:59:18;16.17;;;12.65;;
52764;SDS011;38650;44.536;18.664;2022-10-22T15:01:44;18.23;;;14.07;;
52764;SDS011;38650;44.536;18.664;2022-10-22T15:04:10;16.95;;;14.40;;
52764;SDS011;38650;44.536;18.664;2022-10-22T15:06:36;18.17;;;16.33;;
52764;SDS011;38650;44.536;18.664;2022-10-22T15:09:01;20.60;;;17.77;;
52764;SDS011;38650;44.536;18.664;2022-10-22T15:11:27;30.30;;;26.15;;
52764;SDS011;38650;44.536;18.664;2022-10-22T15:13:53;33.15;;;25.30;;
52764;SDS011;38650;44.536;18.664;2022-10-22T15:16:19;34.88;;;26.45;;
52764;SDS011;38650;44.536;18.664;2022-10-22T15:18:45;34.75;;;30.58;;
52764;SDS011;38650;44.536;18.664;2022-10-22T15:21:13;29.80;;;25.98;;
52764;SDS011;38650;44.536;18.664;2022-10-22T15:23:40;28.85;;;25.67;;
52764;SDS011;38650;44.536;18.664;2022-10-22T15:26:07;29.27;;;26.02;;
52764;SDS011;38650;44.536;18.664;2022-10-22T15:28:33;33.00;;;29.30;;
52764;SDS011;38650;44.536;18.664;2022-10-22T15:31:00;47.58;;;41.95;;
52764;SDS011;38650;44.536;18.664;2022-10-22T15:33:26;50.28;;;44.97;;
52764;SDS011;38650;44.536;18.664;2022-10-22T15:35:52;58.80;;;50.75;;
52764;SDS011;38650;44.536;18.664;2022-10-22T15:38:18;54.22;;;47.53;;
52764;SDS011;38650;44.536;18.664;2022-10-22T15:40:44;47.72;;;42.25;;
52764;SDS011;38650;44.536;18.664;2022-10-22T15:43:10;47.50;;;42.70;;
52764;SDS011;38650;44.536;18.664;2022-10-22T15:45:36;43.10;;;34.78;;
52764;SDS011;38650;44.536;18.664;2022-10-22T15:48:02;37.35;;;33.35;;
52764;SDS011;38650;44.536;18.664;2022-10-22T15:50:28;37.15;;;31.95;;
52764;SDS011;38650;44.536;18.664;2022-10-22T15:52:53;35.30;;;30.27;;
52764;SDS011;38650;44.536;18.664;2022-10-22T15:55:19;36.95;;;32.95;;
52764;SDS011;38650;44.536;18.664;2022-10-22T15:57:45;36.88;;;31.25;;
52764;SDS011;38650;44.536;18.664;2022-10-22T16:00:11;31.25;;;27.95;;
52764;SDS011;38650;44.536;18.664;2022-10-22T16:02:37;38.42;;;32.83;;
52764;SDS011;38650;44.536;18.664;2022-10-22T16:05:03;44.35;;;39.08;;
52764;SDS011;38650;44.536;18.664;2022-10-22T16:07:29;49.47;;;42.58;;
52764;SDS011;38650;44.536;18.664;2022-10-22T16:09:55;45.80;;;39.92;;
52764;SDS011;38650;44.536;18.664;2022-10-22T16:12:22;52.97;;;46.22;;
52764;SDS011;38650;44.536;18.664;2022-10-22T16:14:49;58.45;;;50.05;;
52764;SDS011;38650;44.536;18.664;2022-10-22T16:17:15;57.45;;;51.20;;
52764;SDS011;38650;44.536;18.664;2022-10-22T16:19:41;60.22;;;53.53;;
52764;SDS011;38650;44.536;18.664;2022-10-22T16:22:08;101.72;;;88.80;;
52764;SDS011;38650;44.536;18.664;2022-10-22T16:24:36;127.85;;;109.72;;